Map

Track Data

SID SEASON NUMBER BASIN SUBBASIN NAME ISO_TIME NATURE LAT LON WMO_WIND WMO_PRES WMO_AGENCY TRACK_TYPE DIST2LAND LANDFALL IFLAG USA_AGENCY USA_ATCF_ID USA_LAT USA_LON USA_RECORD USA_STATUS USA_WIND USA_PRES USA_SSHS USA_R34_NE USA_R34_SE USA_R34_SW USA_R34_NW USA_R50_NE USA_R50_SE USA_R50_SW USA_R50_NW USA_R64_NE USA_R64_SE USA_R64_SW USA_R64_NW USA_POCI USA_ROCI USA_RMW USA_EYE TOKYO_LAT TOKYO_LON TOKYO_GRADE TOKYO_WIND TOKYO_PRES TOKYO_R50_DIR TOKYO_R50_LONG TOKYO_R50_SHORT TOKYO_R30_DIR TOKYO_R30_LONG TOKYO_R30_SHORT TOKYO_LAND CMA_LAT CMA_LON CMA_CAT CMA_WIND CMA_PRES HKO_LAT HKO_LON HKO_CAT HKO_WIND HKO_PRES NEWDELHI_LAT NEWDELHI_LON NEWDELHI_GRADE NEWDELHI_WIND NEWDELHI_PRES NEWDELHI_CI NEWDELHI_DP NEWDELHI_POCI REUNION_LAT REUNION_LON REUNION_TYPE REUNION_WIND REUNION_PRES REUNION_TNUM REUNION_CI REUNION_RMW REUNION_R34_NE REUNION_R34_SE REUNION_R34_SW REUNION_R34_NW REUNION_R50_NE REUNION_R50_SE REUNION_R50_SW REUNION_R50_NW REUNION_R64_NE REUNION_R64_SE REUNION_R64_SW REUNION_R64_NW BOM_LAT BOM_LON BOM_TYPE BOM_WIND BOM_PRES BOM_TNUM BOM_CI BOM_RMW BOM_R34_NE BOM_R34_SE BOM_R34_SW BOM_R34_NW BOM_R50_NE BOM_R50_SE BOM_R50_SW BOM_R50_NW BOM_R64_NE BOM_R64_SE BOM_R64_SW BOM_R64_NW BOM_ROCI BOM_POCI BOM_EYE BOM_POS_METHOD BOM_PRES_METHOD NADI_LAT NADI_LON NADI_CAT NADI_WIND NADI_PRES WELLINGTON_LAT WELLINGTON_LON WELLINGTON_WIND WELLINGTON_PRES DS824_LAT DS824_LON DS824_STAGE DS824_WIND DS824_PRES TD9636_LAT TD9636_LON TD9636_STAGE TD9636_WIND TD9636_PRES TD9635_LAT TD9635_LON TD9635_WIND TD9635_PRES TD9635_ROCI NEUMANN_LAT NEUMANN_LON NEUMANN_CLASS NEUMANN_WIND NEUMANN_PRES MLC_LAT MLC_LON MLC_CLASS MLC_WIND MLC_PRES USA_GUST BOM_GUST BOM_GUST_PER REUNION_GUST REUNION_GUST_PER USA_SEAHGT USA_SEARAD_NE USA_SEARAD_SE USA_SEARAD_SW USA_SEARAD_NW STORM_SPEED STORM_DIR
1956081N02154 1956 28 WP MM SARAH 1956-03-21 06:00:00 TS 1.70000 153.900 main 590 576 O________O_O__ jtwc_wp WP011956 1.70000 153.900 25 -1 1.70000 153.900 TC 25 1.70000 153.900 25 1005 120 5 275
1956081N02154 1956 28 WP MM SARAH 1956-03-21 09:00:00 TS 1.72501 153.627 main 576 571 P________P_P__ WP011956 1.72501 153.627 25 -1 1.72501 153.627 TC 25 1.72501 153.627 25 1004 120 5 281
1956081N02154 1956 28 WP MM SARAH 1956-03-21 12:00:00 TS 1.80000 153.400 main 575 570 O________OOO__ jtwc_wp WP011956 1.80000 153.400 25 -1 1.80000 153.400 TC 25 1.80000 153.400 1 25 1.80000 153.400 25 1004 120 4 300
1956081N02154 1956 28 WP MM SARAH 1956-03-21 15:00:00 TS 1.94575 153.244 main 575 575 P________PPP__ WP011956 1.94999 153.243 25 -1 1.94999 153.243 TC 25 1.92031 153.250 1 27 1.94999 153.243 25 1003 120 4 314
1956081N02154 1956 28 WP MM SARAH 1956-03-21 18:00:00 TS 2.08650 153.098 main 591 582 O________OPO__ jtwc_wp WP011956 2.10000 153.100 25 -1 2.10000 153.100 TC 25 2.03250 153.090 1 30 2.10000 153.100 25 1003 120 4 303
1956081N02154 1956 28 WP MM SARAH 1956-03-21 21:00:00 TS 2.15586 152.914 main 592 584 P________PPP__ WP011956 2.16500 152.915 30 -1 2.16500 152.915 TC 30 2.12843 152.910 1 32 2.16500 152.915 30 1002 120 4 286
1956081N02154 1956 28 WP MM SARAH 1956-03-22 00:00:00 TS 2.20000 152.700 main 584 577 O________OOO__ jtwc_wp WP011956 2.20000 152.700 35 0 2.20000 152.700 TC 35 2.20000 152.700 2 35 2.20000 152.700 35 1002 120 5 282
1956081N02154 1956 28 WP MM SARAH 1956-03-22 03:00:00 TS 2.25375 152.462 main 587 578 P________PPP__ WP011956 2.25749 152.465 35 0 2.25749 152.465 TC 35 2.24251 152.454 2 35 2.25749 152.465 35 1001 120 5 280
1956081N02154 1956 28 WP MM SARAH 1956-03-22 06:00:00 TS 2.29125 152.195 main 578 571 O________OPO__ jtwc_wp WP011956 2.30000 152.200 35 0 2.30000 152.200 TC 35 2.26501 152.180 2 35 2.30000 152.200 35 1001 120 6 274
1956081N02154 1956 28 WP MM SARAH 1956-03-22 09:00:00 TS 2.29500 151.898 main 571 565 P________PPP__ WP011956 2.30000 151.900 35 0 2.30000 151.900 TC 35 2.28000 151.891 2 35 2.30000 151.900 35 1001 120 6 271
1956081N02154 1956 28 WP MM SARAH 1956-03-22 12:00:00 TS 2.30000 151.600 main 565 563 O________OOO__ jtwc_wp WP011956 2.30000 151.600 35 0 2.30000 151.600 TC 35 2.30000 151.600 2 35 2.30000 151.600 35 1001 120 6 275
1956081N02154 1956 28 WP MM SARAH 1956-03-22 15:00:00 TS 2.34358 151.347 main 562 562 P________PPP__ WP011956 2.34249 151.350 35 0 2.34249 151.350 TC 35 2.34684 151.337 2 35 2.34249 151.350 35 1000 120 5 281
1956081N02154 1956 28 WP MM SARAH 1956-03-22 18:00:00 TS 2.39999 151.093 main 571 571 O________OPO__ jtwc_wp WP011956 2.40000 151.100 35 0 2.40000 151.100 TC 35 2.39995 151.073 2 35 2.40000 151.100 35 1000 120 6 282
1956081N02154 1956 28 WP MM SARAH 1956-03-22 21:00:00 TS 2.45639 150.805 main 582 582 P________PPP__ WP011956 2.45750 150.808 35 0 2.45750 150.808 TC 35 2.45308 150.797 2 35 2.45750 150.808 35 999 120 6 280
1956081N02154 1956 28 WP MM SARAH 1956-03-23 00:00:00 TS 2.50000 150.500 main 584 584 O________OOO__ jtwc_wp WP011956 2.50000 150.500 35 0 2.50000 150.500 TC 35 2.50000 150.500 2 35 2.50000 150.500 35 999 120 6 275
1956081N02154 1956 28 WP MM SARAH 1956-03-23 03:00:00 TS 2.50499 150.204 main 587 585 P________PPP__ WP011956 2.49998 150.215 40 0 2.49998 150.215 TC 40 2.52000 150.172 2 37 2.49998 150.215 40 998 120 6 270
1956081N02154 1956 28 WP MM SARAH 1956-03-23 06:00:00 TS 2.49667 149.927 998 tokyo main 585 575 OOO______OPO__ jtwc_wp WP011956 2.50000 149.900 45 0 2.40000 150.300 9 998 0 0 0 2.40000 150.300 3 48 998 2.50000 149.900 TC 45 2.53500 149.822 2 40 2.50000 149.900 45 997 120 6 276
1956081N02154 1956 28 WP MM SARAH 1956-03-23 09:00:00 TS 2.56475 149.592 main 580 567 PPP______PPP__ WP011956 2.53500 149.515 45 0 2.66250 150.028 9 996 0 0 2.66004 149.883 3 48 996 2.53500 149.515 TC 45 2.55749 149.462 2 42 2.53500 149.515 45 995 120 7 285
1956081N02154 1956 28 WP MM SARAH 1956-03-23 12:00:00 TS 2.68182 149.236 995 tokyo main 574 570 OOO______OOO__ jtwc_wp WP011956 2.60000 149.100 45 0 2.90000 149.700 9 995 0 0 0 2.90000 149.500 3 48 995 2.60000 149.100 TC 45 2.60000 149.100 2 45 2.60000 149.100 45 993 120 8 290
1956081N02154 1956 28 WP MM SARAH 1956-03-23 15:00:00 TS 2.82519 148.878 main 573 570 PPP______PPP__ WP011956 2.69250 148.685 45 0 3.10000 149.280 9 993 0 0 3.10745 149.165 3 53 993 2.69250 148.685 TC 45 2.66618 148.770 2 45 2.69250 148.685 45 991 150 8 290
1956081N02154 1956 28 WP MM SARAH 1956-03-23 18:00:00 TS 2.95915 148.490 992 tokyo main 584 580 OOO______OPO__ jtwc_wp WP011956 2.80000 148.300 45 0 3.30000 148.800 9 992 0 0 0 3.30000 148.800 3 58 992 2.80000 148.300 TC 45 2.75489 148.437 2 45 2.80000 148.300 45 989 180 8 290
1956081N02154 1956 28 WP MM SARAH 1956-03-23 21:00:00 TS 3.09767 148.126 main 587 586 PPP______PPP__ WP011956 2.89246 148.007 45 0 3.54997 148.315 9 991 0 0 3.49249 148.330 3 63 990 2.89246 148.007 TC 45 2.86616 148.086 2 45 2.89246 148.007 45 987 180 8 291
1956081N02154 1956 28 WP MM SARAH 1956-03-24 00:00:00 TS 3.25000 147.733 990 tokyo main 606 605 OOO______OOO__ jtwc_wp WP011956 3.00000 147.700 45 0 3.80000 147.800 9 990 0 0 0 3.70000 147.800 4 68 988 3.00000 147.700 TC 45 3.00000 147.700 2 45 3.00000 147.700 45 985 180 9 291
1956081N02154 1956 28 WP MM SARAH 1956-03-24 03:00:00 TS 3.41969 147.265 main 616 616 PPP______PPP__ WP011956 3.13500 147.280 60 0 4.01501 147.242 9 987 0 0 3.96499 147.250 4 68 987 3.13500 147.280 TC 60 3.13315 147.257 2 52 3.13500 147.280 60 982 180 10 290
1956081N02154 1956 28 WP MM SARAH 1956-03-24 06:00:00 TS 3.59834 146.763 985 tokyo main 638 638 OOO______OPO__ jtwc_wp WP011956 3.30000 146.800 75 1 4.20000 146.700 9 985 0 0 0 4.20000 146.700 4 68 986 3.30000 146.800 TC 75 3.29004 146.780 2 60 3.30000 146.800 75 979 180 11 289
1956081N02154 1956 28 WP MM SARAH 1956-03-24 09:00:00 TS 3.76739 146.264 main 662 662 PPP______PPP__ WP011956 3.48501 146.292 75 1 4.35744 146.235 9 985 0 0 4.31497 146.185 4 68 985 3.48501 146.292 TC 75 3.47690 146.288 2 67 3.48501 146.292 75 972 210 10 290
1956081N02154 1956 28 WP MM SARAH 1956-03-24 12:00:00 TS 3.95000 145.783 985 tokyo main 689 689 OOO______OOO__ jtwc_wp WP011956 3.70000 145.800 75 1 4.50000 145.800 9 985 0 0 0 4.40000 145.700 4 68 985 3.70000 145.800 TC 75 3.70000 145.800 3 75 3.70000 145.800 75 966 240 10 294
1956081N02154 1956 28 WP MM SARAH 1956-03-24 15:00:00 TS 4.16554 145.348 main 720 720 PPP______PPP__ WP011956 3.92744 145.400 75 1 4.66497 145.350 9 985 0 0 4.55748 145.228 4 72 984 3.92744 145.400 TC 75 3.98845 145.311 3 87 3.92744 145.400 75 956 240 10 298
1956081N02154 1956 28 WP MM SARAH 1956-03-24 18:00:00 TS 4.40126 144.922 985 tokyo main 752 752 OOO______OPO__ jtwc_wp WP011956 4.20000 145.000 75 1 4.80000 144.900 9 985 0 0 0 4.70000 144.800 4 77 984 4.20000 145.000 TC 75 4.30754 144.833 3 100 4.20000 145.000 75 947 240 10 298
1956081N02154 1956 28 WP MM SARAH 1956-03-24 21:00:00 TS 4.65927 144.435 main 800 800 PPP______PPP__ WP011956 4.56507 144.470 100 3 4.87254 144.405 9 984 0 0 4.76499 144.405 4 77 984 4.56507 144.470 TC 100 4.62286 144.389 3 112 4.56507 144.470 100 944 240 10 298
1956081N02154 1956 28 WP MM SARAH 1956-03-25 00:00:00 TS 4.88333 144.017 983 tokyo main 836 836 OOO______OOO__ jtwc_wp WP011956 4.90000 144.000 125 4 4.90000 144.000 9 983 0 0 0 4.80000 144.100 4 77 984 4.90000 144.000 TC 125 4.90000 144.000 4 125 4.90000 144.000 125 941 240 7 299
1956081N02154 1956 28 WP MM SARAH 1956-03-25 03:00:00 TS 5.00398 143.801 main 854 854 PPP______PPP__ WP011956 5.07991 143.770 107 3 4.83987 143.865 9 983 0 0 4.84246 143.935 4 82 983 5.07991 143.770 TC 107 5.10181 143.695 4 108 5.07991 143.770 107 947 240 5 300
1956081N02154 1956 28 WP MM SARAH 1956-03-25 06:00:00 TS 5.11019 143.624 983 tokyo main 873 873 OOO______OPO__ jtwc_wp WP011956 5.20000 143.600 90 2 4.90000 143.700 9 983 0 0 0 4.90000 143.800 5 87 983 5.20000 143.600 TC 90 5.26115 143.445 4 92 5.20000 143.600 90 953 240 6 301
1956081N02154 1956 28 WP MM SARAH 1956-03-25 09:00:00 TS 5.30211 143.311 main 906 906 PPP______PPP__ WP011956 5.35752 143.308 75 1 5.37272 143.135 9 985 0 0 4.97747 143.587 5 82 985 5.35752 143.308 TC 75 5.38993 143.223 4 76 5.35752 143.308 75 960 240 7 300
1956081N02154 1956 28 WP MM SARAH 1956-03-25 12:00:00 TS 5.48333 142.983 987 tokyo main 929 923 OOO______OOO__ jtwc_wp WP011956 5.50000 143.000 60 0 5.80000 142.600 9 987 0 0 0 5.10000 143.300 4 77 987 5.50000 143.000 TC 60 5.50000 143.000 2 60 5.50000 143.000 60 968 240 6 294
1956081N02154 1956 28 WP MM SARAH 1956-03-25 15:00:00 TS 5.56401 142.733 main 931 927 PPP______PPP__ WP011956 5.59998 142.742 75 1 5.69489 142.512 9 989 0 0 5.29254 142.908 4 77 989 5.59998 142.742 TC 75 5.59673 142.750 2 75 5.59998 142.742 75 976 240 5 287
1956081N02154 1956 28 WP MM SARAH 1956-03-25 18:00:00 TS 5.63333 142.500 992 tokyo main 927 927 OOO______OOO__ jtwc_wp WP011956 5.70000 142.500 90 2 5.50000 142.500 9 992 0 0 0 5.50000 142.500 4 77 991 5.70000 142.500 TC 90 5.70000 142.500 3 90 5.70000 142.500 90 984 240 5 293
1956081N02154 1956 28 WP MM SARAH 1956-03-25 21:00:00 TS 5.76948 142.245 main 936 931 PPP______PPP__ WP011956 5.84247 142.265 82 1 5.60503 142.238 9 994 0 0 5.64996 142.185 4 72 993 5.84247 142.265 TC 82 5.83449 142.252 3 82 5.84247 142.265 82 989 240 6 300
1956081N02154 1956 28 WP MM SARAH 1956-03-26 00:00:00 TS 5.93333 141.967 996 tokyo main 937 933 OOO______OOO__ jtwc_wp WP011956 6.00000 142.000 75 1 5.80000 141.900 9 996 0 0 0 5.80000 141.900 4 68 995 6.00000 142.000 TC 75 6.00000 142.000 4 75 6.00000 142.000 75 994 240 7 297
1956081N02154 1956 28 WP MM SARAH 1956-03-26 03:00:00 TS 6.07566 141.633 main 942 937 PPP______PPP__ WP011956 6.12754 141.642 75 1 5.90503 141.562 9 996 0 0 5.97751 141.585 4 68 995 6.12754 141.642 TC 75 6.18881 141.721 4 75 6.12754 141.642 75 992 240 7 298
1956081N02154 1956 28 WP MM SARAH 1956-03-26 06:00:00 TS 6.26762 141.322 996 tokyo main 949 949 OOO______OPO__ jtwc_wp WP011956 6.30000 141.300 75 1 6.10000 141.300 9 996 0 0 0 6.20000 141.300 4 68 995 6.30000 141.300 TC 75 6.40574 141.433 4 75 6.30000 141.300 75 990 240 7 314
1956081N02154 1956 28 WP MM SARAH 1956-03-26 09:00:00 TS 6.57118 141.118 main 973 973 PPP______PPP__ WP011956 6.59246 141.077 75 1 6.52745 141.242 9 996 0 0 6.47748 141.077 4 68 995 6.59246 141.077 TC 75 6.64479 141.153 4 75 6.59246 141.077 75 991 240 7 330
1956081N02154 1956 28 WP MM SARAH 1956-03-26 12:00:00 TS 6.90000 140.950 996 tokyo main 1002 998 OOO______OOO__ jtwc_wp WP011956 6.90000 140.900 75 1 7.00000 141.200 9 996 0 0 0 6.80000 140.900 4 68 996 6.90000 140.900 TC 75 6.90000 140.900 4 75 6.90000 140.900 75 993 240 7 329
1956081N02154 1956 28 WP MM SARAH 1956-03-26 15:00:00 TS 7.15460 140.757 main 1027 1024 PPP______PPP__ WP011956 7.09250 140.692 75 1 7.34500 140.988 9 996 0 0 7.16498 140.750 4 68 997 7.09250 140.692 TC 75 7.14015 140.724 4 75 7.09250 140.692 75 995 240 6 322
1956081N02154 1956 28 WP MM SARAH 1956-03-26 18:00:00 TS 7.39954 140.562 996 tokyo main 1043 1040 OOO______OPO__ jtwc_wp WP011956 7.30000 140.500 75 1 7.60000 140.700 9 996 0 0 0 7.50000 140.600 4 68 998 7.30000 140.500 TC 75 7.39725 140.572 4 75 7.30000 140.500 75 997 240 6 324
1956081N02154 1956 28 WP MM SARAH 1956-03-26 21:00:00 TS 7.66010 140.386 main 1070 1067 PPP______PPP__ WP011956 7.61997 140.357 75 1 7.73499 140.407 9 996 0 0 7.68496 140.430 4 68 997 7.61997 140.357 TC 75 7.68074 140.409 4 75 7.61997 140.357 75 996 240 7 327
1956081N02154 1956 28 WP MM SARAH 1956-03-27 00:00:00 TS 7.96667 140.183 996 tokyo main 1095 1090 OOO______OOO__ jtwc_wp WP011956 8.00000 140.200 75 1 7.90000 140.100 9 996 0 0 0 7.90000 140.200 4 68 996 8.00000 140.200 TC 75 8.00000 140.200 4 75 8.00000 140.200 75 996 240 8 328
1956081N02154 1956 28 WP MM SARAH 1956-03-27 03:00:00 TS 8.35616 139.945 main 1122 1122 PPP______PPP__ WP011956 8.39244 139.995 82 1 8.25482 139.852 9 993 0 0 8.31237 139.917 4 72 991 8.39244 139.995 TC 82 8.39249 139.913 4 78 8.39244 139.995 82 993 240 10 325
1956081N02154 1956 28 WP MM SARAH 1956-03-27 06:00:00 TS 8.78583 139.613 990 tokyo main 1151 1151 OOO______OPO__ jtwc_wp WP011956 8.80000 139.700 90 2 8.70000 139.500 9 990 0 0 0 8.80000 139.500 4 77 987 8.80000 139.700 TC 90 8.81497 139.575 4 82 8.80000 139.700 90 990 240 12 317
1956081N02154 1956 28 WP MM SARAH 1956-03-27 09:00:00 TS 9.23138 139.119 main 1175 1175 PPP______PPP__ WP011956 9.23006 139.273 90 2 9.18034 138.850 9 990 0 0 9.28782 138.843 4 77 987 9.23006 139.273 TC 90 9.22996 139.200 4 86 9.23006 139.273 90 990 240 13 310
1956081N02154 1956 28 WP MM SARAH 1956-03-27 12:00:00 TS 9.61667 138.600 990 tokyo main 1201 1201 OOO______OOO__ jtwc_wp WP011956 9.60000 138.800 90 2 9.60000 138.200 9 990 0 0 0 9.70000 138.200 4 77 987 9.60000 138.800 TC 90 9.60000 138.800 4 90 9.60000 138.800 90 990 240 11 305
1956081N02154 1956 28 WP MM SARAH 1956-03-27 15:00:00 TS 9.85475 138.213 main 1222 1217 PPP______PPP__ WP011956 9.82239 138.400 90 2 9.84480 137.832 9 990 0 0 9.93728 137.840 4 82 987 9.82239 138.400 TC 90 9.87924 138.404 4 90 9.82239 138.400 90 990 240 8 300
1956081N02154 1956 28 WP MM SARAH 1956-03-27 18:00:00 TS 10.0350 137.865 990 tokyo main 1225 1223 OOO______OPO__ jtwc_wp WP011956 10.0000 138.000 90 2 10.0000 137.600 9 990 0 0 0 10.1000 137.600 5 87 987 10.0000 138.000 TC 90 10.1098 137.987 4 90 10.0000 138.000 90 990 240 8 300
1956081N02154 1956 28 WP MM SARAH 1956-03-27 21:00:00 TS 10.2479 137.512 main 1230 1195 PPP______PPP__ WP011956 10.2499 137.565 90 2 10.1273 137.445 9 990 0 0 10.2998 137.380 5 87 987 10.2499 137.565 TC 90 10.3104 137.551 4 90 10.2499 137.565 90 989 240 9 300
1956081N02154 1956 28 WP MM SARAH 1956-03-28 00:00:00 TS 10.4667 137.117 990 tokyo main 1195 1156 OOO______OOO__ jtwc_wp WP011956 10.5000 137.100 90 2 10.3000 137.200 9 990 0 0 0 10.5000 137.100 5 87 987 10.5000 137.100 TC 90 10.5000 137.100 4 90 10.5000 137.100 90 988 240 10 297
1956081N02154 1956 28 WP MM SARAH 1956-03-28 03:00:00 TS 10.6973 136.621 main 1148 1099 PPP______PPP__ WP011956 10.7075 136.600 90 2 10.6502 136.645 9 990 0 0 10.7001 136.638 5 87 986 10.7075 136.600 TC 90 10.7111 136.643 4 90 10.7075 136.600 90 986 240 11 294
1956081N02154 1956 28 WP MM SARAH 1956-03-28 06:00:00 TS 10.9191 136.095 990 tokyo main 1099 1051 OOO______OPO__ jtwc_wp WP011956 10.9000 136.100 90 2 11.0000 136.000 9 990 0 0 0 10.9000 136.100 5 87 985 10.9000 136.100 TC 90 10.9148 136.172 4 90 10.9000 136.100 90 985 240 11 293
1956081N02154 1956 28 WP MM SARAH 1956-03-28 09:00:00 TS 11.1151 135.613 main 1051 1013 PPP______PPP__ WP011956 11.0999 135.642 90 2 11.1799 135.470 9 987 0 0 11.1000 135.592 5 87 983 11.0999 135.642 TC 90 11.1111 135.690 4 90 11.0999 135.642 90 983 240 10 292
1956081N02154 1956 28 WP MM SARAH 1956-03-28 12:00:00 TS 11.3000 135.150 985 tokyo main 1013 965 OOO______OOO__ jtwc_wp WP011956 11.3000 135.200 90 2 11.3000 135.000 9 985 0 0 0 11.3000 135.100 5 87 982 11.3000 135.200 TC 90 11.3000 135.200 4 90 11.3000 135.200 90 981 240 10 293
1956081N02154 1956 28 WP MM SARAH 1956-03-28 15:00:00 TS 11.4967 134.705 main 965 926 PPP______PPP__ WP011956 11.5074 134.765 90 2 11.4573 134.592 9 982 0 0 11.5149 134.635 5 92 980 11.5074 134.765 TC 90 11.4861 134.707 4 92 11.5074 134.765 90 979 240 10 293
1956081N02154 1956 28 WP MM SARAH 1956-03-28 18:00:00 TS 11.6775 134.251 980 tokyo main 929 877 OOO______OPO__ jtwc_wp WP011956 11.7000 134.300 90 2 11.6000 134.200 9 980 0 0 0 11.7000 134.200 5 97 978 11.7000 134.300 TC 90 11.6647 134.207 4 95 11.7000 134.300 90 978 240 10 289
1956081N02154 1956 28 WP MM SARAH 1956-03-28 21:00:00 TS 11.8243 133.751 main 877 824 PPP______PPP__ WP011956 11.8651 133.750 95 2 11.7000 133.750 9 977 0 0 11.8149 133.800 5 97 976 11.8651 133.750 TC 95 11.8360 133.704 4 97 11.8651 133.750 95 976 270 10 286
1956081N02154 1956 28 WP MM SARAH 1956-03-29 00:00:00 TS 11.9500 133.250 975 tokyo main 825 771 OOO______OOO__ jtwc_wp WP011956 12.0000 133.200 100 3 11.8000 133.300 9 975 0 0 0 11.9000 133.400 5 97 975 12.0000 133.200 TC 100 12.0000 133.200 4 100 12.0000 133.200 100 975 300 9 284
1956081N02154 1956 28 WP MM SARAH 1956-03-29 03:00:00 TS 12.0561 132.811 main 772 731 PPP______PPP__ WP011956 12.0923 132.750 92 2 11.9348 132.922 9 975 0 0 11.9848 132.980 5 101 974 12.0923 132.750 TC 92 12.1405 132.716 4 96 12.0923 132.750 92 977 270 9 285
1956081N02154 1956 28 WP MM SARAH 1956-03-29 06:00:00 TS 12.1795 132.355 975 tokyo main 731 680 OOO______OPO__ jtwc_wp WP011956 12.2000 132.300 85 2 12.1000 132.500 9 975 0 0 0 12.1000 132.500 6 106 974 12.2000 132.300 TC 85 12.2768 132.229 4 92 12.2000 132.300 85 979 240 10 287
1956081N02154 1956 28 WP MM SARAH 1956-03-29 09:00:00 TS 12.3570 131.819 main 672 622 PPP______PPP__ WP011956 12.3849 131.773 85 2 12.2850 131.937 9 975 0 0 12.2775 131.930 6 111 973 12.3849 131.773 TC 85 12.4248 131.728 4 88 12.3849 131.773 85 979 240 12 289
1956081N02154 1956 28 WP MM SARAH 1956-03-29 12:00:00 TS 12.5667 131.233 975 tokyo main 614 566 OOO______OOO__ jtwc_wp WP011956 12.6000 131.200 85 2 12.5000 131.300 9 975 0 0 0 12.5000 131.300 6 116 973 12.6000 131.200 TC 85 12.6000 131.200 4 85 12.6000 131.200 85 980 240 12 290
1956081N02154 1956 28 WP MM SARAH 1956-03-29 15:00:00 TS 12.7755 130.632 main 558 496 PPP______PPP__ WP011956 12.7849 130.607 85 2 12.7423 130.665 9 975 0 0 12.7348 130.665 6 116 972 12.7849 130.607 TC 85 12.8210 130.641 4 85 12.7849 130.607 85 980 240 13 290
1956081N02154 1956 28 WP MM SARAH 1956-03-29 18:00:00 TS 13.0116 130.009 975 tokyo main 496 440 OOO______OPO__ jtwc_wp WP011956 13.0000 130.000 85 2 13.0000 130.000 9 975 0 0 0 13.0000 130.000 6 116 971 13.0000 130.000 TC 85 13.0695 130.052 4 85 13.0000 130.000 85 980 240 13 293
1956081N02154 1956 28 WP MM SARAH 1956-03-29 21:00:00 TS 13.2933 129.385 main 440 386 PPP______PPP__ WP011956 13.2922 129.422 85 2 13.2424 129.307 9 972 0 0 13.3074 129.300 6 116 970 13.2922 129.422 TC 85 13.3333 129.438 4 85 13.2922 129.422 85 980 240 14 295
1956081N02154 1956 28 WP MM SARAH 1956-03-30 00:00:00 TS 13.5833 128.733 970 tokyo main 380 324 OOO______OOO__ jtwc_wp WP011956 13.6000 128.800 85 2 13.5000 128.600 9 970 0 0 0 13.6000 128.600 6 116 970 13.6000 128.800 TC 85 13.6000 128.800 4 85 13.6000 128.800 85 981 240 15 292
1956081N02154 1956 28 WP MM SARAH 1956-03-30 03:00:00 TS 13.8451 128.008 main 324 288 PPP______PPP__ WP011956 13.8577 128.050 85 2 13.8074 127.885 9 970 0 0 13.8149 127.920 6 111 974 13.8577 128.050 TC 85 13.8750 128.090 4 85 13.8577 128.050 85 981 240 15 290
1956081N02154 1956 28 WP MM SARAH 1956-03-30 06:00:00 TS 14.0910 127.295 970 tokyo main 288 252 OOO______OPO__ jtwc_wp WP011956 14.1000 127.300 85 2 14.1000 127.200 9 970 0 0 0 14.0000 127.300 6 106 979 14.1000 127.300 TC 85 14.1460 127.368 4 85 14.1000 127.300 85 982 240 14 291
1956081N02154 1956 28 WP MM SARAH 1956-03-30 09:00:00 TS 14.3388 126.663 main 252 195 PPP______PPP__ WP011956 14.3723 126.655 85 2 14.3224 126.555 9 975 0 0 14.1998 126.770 6 101 981 14.3723 126.655 TC 85 14.3939 126.687 4 85 14.3723 126.655 85 982 210 12 292
1956081N02154 1956 28 WP MM SARAH 1956-03-30 12:00:00 TS 14.5500 126.117 980 tokyo main 199 157 OOO______OOO__ jtwc_wp WP011956 14.6000 126.100 85 2 14.5000 126.000 9 980 0 0 0 14.4000 126.300 5 97 983 14.6000 126.100 TC 85 14.6000 126.100 4 85 14.6000 126.100 85 983 180 11 290
1956081N02154 1956 28 WP MM SARAH 1956-03-30 15:00:00 TS 14.6964 125.624 main 157 139 PPP______PPP__ WP011956 14.7224 125.590 85 2 14.6574 125.540 9 980 0 0 14.6075 125.813 5 92 984 14.7224 125.590 TC 85 14.7463 125.625 4 83 14.7224 125.590 85 984 180 9 287
1956081N02154 1956 28 WP MM SARAH 1956-03-30 18:00:00 TS 14.8086 125.242 980 tokyo main 132 124 OOO______OPO__ jtwc_wp WP011956 14.8000 125.200 85 2 14.8000 125.200 9 980 0 0 0 14.8000 125.400 5 87 986 14.8000 125.200 TC 85 14.8515 125.254 4 82 14.8000 125.200 85 985 180 7 290
1956081N02154 1956 28 WP MM SARAH 1956-03-30 21:00:00 TS 14.9255 124.972 main 125 119 PPP______PPP__ WP011956 14.8999 124.940 82 1 14.9574 124.947 9 985 0 0 14.9649 125.082 5 87 986 14.8999 124.940 TC 82 14.9310 124.982 4 81 14.8999 124.940 82 985 180 5 299
1956081N02154 1956 28 WP MM SARAH 1956-03-31 00:00:00 TS 15.0333 124.817 990 tokyo main 124 124 OOO______OOO__ jtwc_wp WP011956 15.0000 124.800 80 1 15.1000 124.800 9 990 0 0 0 15.1000 124.900 5 87 987 15.0000 124.800 TC 80 15.0000 124.800 4 80 15.0000 124.800 80 986 180 3 312
1956081N02154 1956 28 WP MM SARAH 1956-03-31 03:00:00 TS 15.1328 124.734 main 130 130 PPP______PPP__ WP011956 15.1075 124.720 80 1 15.2000 124.705 9 990 0 0 15.1925 124.862 5 82 987 15.1075 124.720 TC 80 15.0819 124.676 4 80 15.1075 124.720 80 986 180 2 335
1956081N02154 1956 28 WP MM SARAH 1956-03-31 06:00:00 TS 15.2262 124.723 990 tokyo main 141 141 OOO______OPO__ jtwc_wp WP011956 15.2000 124.700 80 1 15.3000 124.700 9 990 0 0 0 15.3000 124.900 4 77 988 15.2000 124.700 TC 80 15.1572 124.637 4 80 15.2000 124.700 80 987 180 2 7
1956081N02154 1956 28 WP MM SARAH 1956-03-31 09:00:00 TS 15.3252 124.735 main 151 151 PPP______PPP__ WP011956 15.2500 124.685 80 1 15.4575 124.800 9 992 0 0 15.5150 124.900 4 77 990 15.2500 124.685 TC 80 15.2289 124.655 4 80 15.2500 124.685 80 988 180 2 11
1956081N02154 1956 28 WP MM SARAH 1956-03-31 12:00:00 TS 15.4167 124.767 995 tokyo main 165 165 OOO______OOO__ jtwc_wp WP011956 15.3000 124.700 80 1 15.6000 124.900 9 995 0 0 0 15.7000 124.900 4 77 993 15.3000 124.700 TC 80 15.3000 124.700 4 80 15.3000 124.700 80 989 180 2 10
1956081N02154 1956 28 WP MM SARAH 1956-03-31 15:00:00 TS 15.4994 124.785 main 176 176 PPP______PPP__ WP011956 15.4000 124.742 80 1 15.6875 124.873 9 995 0 0 15.7300 124.900 4 72 994 15.4000 124.742 TC 80 15.3790 124.708 4 76 15.4000 124.742 80 989 180 1 15
1956081N02154 1956 28 WP MM SARAH 1956-03-31 18:00:00 TS 15.5596 124.807 995 tokyo main 187 187 OOO______OPO__ jtwc_wp WP011956 15.5000 124.800 80 1 15.7000 124.800 9 995 0 0 0 15.7000 124.900 4 68 995 15.5000 124.800 TC 80 15.4574 124.740 4 72 15.5000 124.800 80 990 180 1 19
1956081N02154 1956 28 WP MM SARAH 1956-03-31 21:00:00 TS 15.5829 124.832 main 187 187 PPP______PPP__ WP011956 15.5575 124.850 72 1 15.5925 124.742 9 997 0 0 15.7000 124.900 4 68 996 15.5575 124.850 TC 72 15.5321 124.802 4 68 15.5575 124.850 72 991 180 1 54
1956081N02154 1956 28 WP MM SARAH 1956-04-01 00:00:00 TS 15.6000 124.867 1000 tokyo main 190 190 OOO______OOO__ jtwc_wp WP011956 15.6000 124.900 65 1 15.5000 124.700 9 1000 0 0 0 15.7000 124.900 4 68 998 15.6000 124.900 TC 65 15.6000 124.900 4 65 15.6000 124.900 65 992 180 1 30
1956081N02154 1956 28 WP MM SARAH 1956-04-01 03:00:00 TS 15.6513 124.878 main 200 200 PPP______PPP__ WP011956 15.6499 124.913 65 1 15.5849 124.648 9 1000 0 0 15.7000 124.870 4 68 997 15.6499 124.913 TC 65 15.6733 125.011 4 65 15.6499 124.913 65 992 180 1 39
1956081N02154 1956 28 WP MM SARAH 1956-04-01 06:00:00 TS 15.7062 124.960 1000 tokyo main 204 204 OOO______OPO__ jtwc_wp WP011956 15.7000 125.000 65 1 15.7000 124.700 9 1000 0 0 0 15.7000 124.900 4 68 996 15.7000 125.000 TC 65 15.7372 125.160 4 65 15.7000 125.000 65 993 180 3 72
1956081N02154 1956 28 WP MM SARAH 1956-04-01 09:00:00 TS 15.7488 125.186 main 213 213 PPP______PPP__ WP011956 15.7575 125.255 65 1 15.7300 124.947 9 1000 0 0 15.7075 125.047 4 68 996 15.7575 125.255 TC 65 15.7826 125.354 4 65 15.7575 125.255 65 993 180 5 83
1956081N02154 1956 28 WP MM SARAH 1956-04-01 12:00:00 TS 15.7667 125.500 1000 tokyo main 239 239 OOO______OOO__ jtwc_wp WP011956 15.8000 125.600 65 1 15.7000 125.300 9 1000 0 0 0 15.7000 125.300 4 68 996 15.8000 125.600 TC 65 15.8000 125.600 4 65 15.8000 125.600 65 994 180 6 90
1956081N02154 1956 28 WP MM SARAH 1956-04-01 15:00:00 TS 15.7540 125.830 main 258 256 PPP______PPP__ WP011956 15.8225 125.942 65 1 15.6000 125.643 9 1000 0 0 15.6575 125.620 4 68 996 15.8225 125.942 TC 65 15.7991 125.887 4 63 15.8225 125.942 65 995 180 7 95
1956081N02154 1956 28 WP MM SARAH 1956-04-01 18:00:00 TS 15.7112 126.187 1000 tokyo main 279 279 OOO______OPO__ jtwc_wp WP011956 15.8000 126.300 65 1 15.5000 126.000 9 1000 0 0 0 15.6000 126.000 4 68 996 15.8000 126.300 TC 65 15.7674 126.225 4 62 15.8000 126.300 65 996 180 7 98
1956081N02154 1956 28 WP MM SARAH 1956-04-01 21:00:00 TS 15.6569 126.542 main 302 302 PPP______PPP__ WP011956 15.7224 126.642 62 0 15.5074 126.335 9 1000 0 0 15.5650 126.392 4 68 996 15.7224 126.642 TC 62 15.7021 126.600 4 61 15.7224 126.642 62 996 180 7 102
1956081N02154 1956 28 WP MM SARAH 1956-04-02 00:00:00 TS 15.5667 126.917 1000 tokyo main 329 329 OOO______OOO__ jtwc_wp WP011956 15.6000 127.000 60 0 15.5000 126.700 9 1000 0 0 0 15.5000 126.800 4 68 996 15.6000 127.000 TC 60 15.6000 127.000 2 60 15.6000 127.000 60 997 180 8 106
1956081N02154 1956 28 WP MM SARAH 1956-04-02 03:00:00 TS 15.4387 127.321 main 354 354 PPP______PPP__ WP011956 15.4649 127.385 60 0 15.3801 127.158 9 1000 0 0 15.3799 127.200 4 68 995 15.4649 127.385 TC 60 15.4772 127.412 2 60 15.4649 127.385 60 998 180 8 111
1956081N02154 1956 28 WP MM SARAH 1956-04-02 06:00:00 TS 15.2696 127.740 1000 tokyo main 388 388 OOO______OPO__ jtwc_wp WP011956 15.3000 127.800 60 0 15.2000 127.600 9 1000 0 0 0 15.2000 127.600 4 68 995 15.3000 127.800 TC 60 15.3176 127.843 2 60 15.3000 127.800 60 1000 180 9 115
1956081N02154 1956 28 WP MM SARAH 1956-04-02 09:00:00 TS 15.0686 128.156 main 430 427 PPP______PPP__ WP011956 15.1075 128.250 60 0 15.0073 127.907 9 1001 0 0 14.9574 128.000 4 63 996 15.1075 128.250 TC 60 15.1241 128.277 2 60 15.1075 128.250 60 1001 150 9 118
1956081N02154 1956 28 WP MM SARAH 1956-04-02 12:00:00 TS 14.8500 128.567 1002 tokyo main 451 444 OOO______OOO__ jtwc_wp WP011956 14.9000 128.700 60 0 14.8000 128.200 9 1002 0 0 0 14.7000 128.400 3 58 998 14.9000 128.700 TC 60 14.9000 128.700 2 60 14.9000 128.700 60 1002 120 9 118
1956081N02154 1956 28 WP MM SARAH 1956-04-02 15:00:00 TS 14.6515 128.974 main 470 464 PPP______PPP__ WP011956 14.7224 129.115 60 0 14.6075 128.577 9 1002 0 0 14.4924 128.800 3 53 1000 14.7224 129.115 TC 60 14.6416 129.122 2 51 14.7224 129.115 60 1003 120 9 119
1956081N02154 1956 28 WP MM SARAH 1956-04-02 18:00:00 TS 14.4263 129.371 1002 tokyo main 488 488 OOO______OPO__ jtwc_wp WP011956 14.5000 129.500 60 0 14.4000 129.000 9 1002 0 0 0 14.3000 129.200 3 48 1002 14.5000 129.500 TC 60 14.3576 129.525 2 42 14.5000 129.500 60 1004 120 9 124
1956081N02154 1956 28 WP MM SARAH 1956-04-02 21:00:00 TS 14.1258 129.766 main 512 512 PPP______PPP__ WP011956 14.1425 129.888 42 0 14.1574 129.435 9 1003 0 0 14.1000 129.607 3 43 1003 14.1425 129.888 TC 42 14.0698 129.891 2 33 14.1425 129.888 42 1005 120 9 129
1956081N02154 1956 28 WP MM SARAH 1956-04-03 00:00:00 TS 13.8333 130.117 1004 tokyo main 529 529 OOO______OOO__ jtwc_wp WP011956 13.8000 130.200 25 -1 13.9000 129.900 9 1004 0 0 0 13.9000 130.000 2 38 1004 13.8000 130.200 TC 25 13.8000 130.200 1 25 13.8000 130.200 25 1006 120 8 129
1956081N02154 1956 28 WP MM SARAH 1956-04-03 03:00:00 TS 13.6346 130.390 main 554 554 PPP______PPP__ WP011956 13.6349 130.372 25 -1 13.6201 130.423 9 1004 0 0 13.6924 130.357 2 33 1005 13.6349 130.372 TC 25 13.5903 130.444 1 25 13.6349 130.372 25 1005 90 6 127
1956081N02154 1956 28 WP MM SARAH 1956-04-03 06:00:00 TS 13.4666 130.622 1004 tokyo main 572 569 OOO______OPO__ jtwc_wp WP011956 13.5000 130.500 25 -1 13.4000 130.900 9 1004 0 0 0 13.5000 130.700 1 29 1006 13.5000 130.500 TC 25 13.3997 130.632 1 25 13.5000 130.500 25 1004 60 6 127
1956081N02154 1956 28 WP MM SARAH 1956-04-03 09:00:00 TS 13.2828 130.866 main 598 596 PPP______PPP__ WP011956 13.2725 130.708 25 -1 13.3349 131.237 9 1005 0 0 13.3350 131.057 1 29 1006 13.2725 130.708 TC 25 13.2092 130.779 1 25 13.2725 130.708 25 1004 60 6 134
1956081N02154 1956 28 WP MM SARAH 1956-04-03 12:00:00 TS 13.0682 131.050 1006 tokyo main 616 613 OOO______OOO__ jtwc_wp WP011956 13.0000 130.900 25 -1 13.3000 131.500 2 1006 0 0 0 13.2000 131.400 1 29 1006 13.0000 130.900 TC 25 13.0000 130.900 1 25 13.0000 130.900 25 1004 60 6 149
1956081N02154 1956 28 WP MM SARAH 1956-04-03 15:00:00 TS 12.7925 131.165 main 621 611 PPP______PPP__ WP011956 12.7000 131.015 25 -1 13.1801 131.750 2 1006 0 0 13.0925 131.710 1 1006 12.7000 131.015 TC 25 12.7262 131.050 1 25 12.7000 131.015 25 1004 90 6 165
1956081N02154 1956 28 WP MM SARAH 1956-04-03 18:00:00 TS 12.4744 131.217 1006 tokyo main 611 606 OOO______OPO__ jtwc_wp WP011956 12.4000 131.100 25 -1 13.0000 132.000 2 1006 0 0 0 13.0000 132.000 0 1006 12.4000 131.100 TC 25 12.4350 131.175 1 25 12.4000 131.100 25 1004 120 7 170
1956081N02154 1956 28 WP MM SARAH 1956-04-03 21:00:00 TS 12.1277 131.289 main 612 608 P________PPP__ WP011956 12.1199 131.298 25 -1 2 0 0 0 12.1199 131.298 TC 25 12.1512 131.263 1 25 12.1199 131.298 25 1004 120 6 172
1956081N02154 1956 28 WP MM SARAH 1956-04-04 00:00:00 TS 11.9000 131.300 main 608 563 O________OOO__ jtwc_wp WP011956 11.9000 131.300 25 -1 11.9000 131.300 TC 25 11.9000 131.300 1 25 11.9000 131.300 25 1004 120 6 231
1956081N02154 1956 28 WP MM SARAH 1956-04-04 03:00:00 TS 11.7713 130.841 main 552 507 P________PPP__ WP011956 11.7931 130.705 25 -1 11.7931 130.705 TC 25 11.7060 131.251 1 25 11.7931 130.705 25 1004 90 9 254
1956081N02154 1956 28 WP MM SARAH 1956-04-04 06:00:00 TS 11.6619 130.439 main 507 506 O________OPO__ jtwc_wp WP011956 11.7000 130.200 25 -1 11.7000 130.200 TC 25 11.5475 131.157 1 25 11.7000 130.200 25 1004 60 4 214
1956081N02154 1956 28 WP MM SARAH 1956-04-04 09:00:00 TS 11.4790 130.642 main 526 526 P________PPP__ WP011956 11.5002 130.503 25 -1 11.5002 130.503 TC 25 11.4153 131.060 1 25 11.5002 130.503 25 1003 60 7 123
1956081N02154 1956 28 WP MM SARAH 1956-04-04 12:00:00 TS 11.3000 131.000 main 568 568 O________OOO__ jtwc_wp WP011956 11.3000 131.000 25 -1 11.3000 131.000 TC 25 11.3000 131.000 1 25 11.3000 131.000 25 1003 60 6 122
1956081N02154 1956 28 WP MM SARAH 1956-04-04 15:00:00 TS 11.1780 131.127 main 579 579 P________PPP__ WP011956 11.1849 131.152 27 -1 11.1849 131.152 TC 27 11.1572 131.052 1 27 11.1849 131.152 27 1002 90 3 140
1956081N02154 1956 28 WP MM SARAH 1956-04-04 18:00:00 TS 11.0831 131.186 main 587 583 O________OPO__ jtwc_wp WP011956 11.1000 131.200 30 -1 11.1000 131.200 TC 30 11.0325 131.143 1 30 11.1000 131.200 30 1002 120 3 148
1956081N02154 1956 28 WP MM SARAH 1956-04-04 21:00:00 TS 10.9629 131.264 main 593 590 P________PPP__ WP011956 10.9700 131.273 32 -1 10.9700 131.273 TC 32 10.9416 131.237 1 32 10.9700 131.273 32 1001 120 2 149
1956081N02154 1956 28 WP MM SARAH 1956-04-05 00:00:00 TS 10.9000 131.300 main 590 590 O________OOO__ jtwc_wp WP011956 10.9000 131.300 35 0 10.9000 131.300 TC 35 10.9000 131.300 2 35 10.9000 131.300 35 1001 120 0 0
1956081N02154 1956 28 WP MM SARAH 1956-04-05 03:00:00 TS 10.9627 131.275 main 593 583 P________PPP__ WP011956 10.9775 131.265 35 0 10.9775 131.265 TC 35 10.9181 131.307 2 35 10.9775 131.265 35 1001 120 2 333
1956081N02154 1956 28 WP MM SARAH 1956-04-05 06:00:00 TS 11.0770 131.213 main 587 587 O________OPO__ jtwc_wp WP011956 11.1000 131.200 35 0 11.1000 131.200 TC 35 10.9850 131.265 2 35 11.1000 131.200 35 1002 120 2 328
1956081N02154 1956 28 WP MM SARAH 1956-04-05 09:00:00 TS 11.1535 131.156 main 590 579 P________PPP__ WP011956 11.1650 131.150 35 0 11.1650 131.150 TC 35 11.0844 131.191 2 35 11.1650 131.150 35 1003 120 2 317
1956081N02154 1956 28 WP MM SARAH 1956-04-05 12:00:00 TS 11.2000 131.100 main 579 579 O________OOO__ jtwc_wp WP011956 11.2000 131.100 35 0 11.2000 131.100 TC 35 11.2000 131.100 2 35 11.2000 131.100 35 1004 120 1 297
1956081N02154 1956 28 WP MM SARAH 1956-04-05 15:00:00 TS 11.2075 131.050 main 579 568 P________P_P__ WP011956 11.2075 131.050 30 -1 11.2075 131.050 TC 30 2 11.2075 131.050 30 1005 90 1 270
1956081N02154 1956 28 WP MM SARAH 1956-04-05 18:00:00 TS 11.2000 131.000 main 568 O________O_O__ jtwc_wp WP011956 11.2000 131.000 25 -1 11.2000 131.000 TC 25 2 11.2000 131.000 25 1006 60 1 262

Digital Typhoon Data and Search

About IBTrACS Database

This database is a web-friendly format of International Best Track Archive for Climate Stewardship (IBTrACS), a global best track data archive curated by NOAA dating back to 1842.

Updated: 2021-12-01